Time;durP1;ratioP1;P1;durP2;ratioP2;P2;SDS_P1;SDS_P2;PMS_P1;PMS_P2;Temp;Humidity;BMP_temperature;BMP_pressure;BME280_temperature;BME280_humidity;BME280_pressure;Samples;Min_cycle;Max_cycle;Signal;HPM_P1;HPM_P2
2022/04/04 00:01:25;;;;;;;7.87;6.27;;;-0.20;99.90;;;;;;5013718;28;20207;-62
2022/04/04 00:03:52;;;;;;;10.10;6.87;;;-0.30;99.90;;;;;;5013691;28;20663;-62
2022/04/04 00:06:20;;;;;;;10.47;6.97;;;-0.30;99.90;;;;;;5013439;28;20217;-63
2022/04/04 00:08:47;;;;;;;8.30;6.73;;;-0.20;99.90;;;;;;5013330;28;20236;-63
2022/04/04 00:11:14;;;;;;;10.13;6.57;;;-0.20;99.90;;;;;;5013331;28;20671;-63
2022/04/04 00:13:40;;;;;;;11.83;7.07;;;-0.30;99.90;;;;;;5013528;28;20233;-62
2022/04/04 00:16:08;;;;;;;10.67;7.33;;;-0.30;99.90;;;;;;5013313;28;20214;-63
2022/04/04 00:18:35;;;;;;;7.87;6.50;;;-0.30;99.90;;;;;;5013252;28;20746;-62
2022/04/04 00:21:04;;;;;;;10.93;6.40;;;-0.30;99.90;;;;;;5013540;28;20294;-61
2022/04/04 00:23:32;;;;;;;6.93;5.73;;;-0.30;99.90;;;;;;5013614;28;20321;-62
2022/04/04 00:25:59;;;;;;;8.80;6.47;;;-0.30;99.90;;;;;;5013369;28;20207;-62
2022/04/04 00:28:26;;;;;;;10.83;6.77;;;-0.20;99.90;;;;;;5012223;28;20619;-62
2022/04/04 00:30:52;;;;;;;7.80;6.00;;;-0.20;99.90;;;;;;5012866;28;20269;-62
2022/04/04 00:33:19;;;;;;;10.30;6.30;;;-0.30;99.90;;;;;;5013128;28;20233;-62
2022/04/04 00:35:46;;;;;;;7.50;6.70;;;-0.50;99.90;;;;;;5013100;28;20863;-62
2022/04/04 00:38:14;;;;;;;9.40;7.33;;;-0.40;99.90;;;;;;5012675;28;20207;-62
2022/04/04 00:40:43;;;;;;;11.27;7.67;;;-0.40;99.90;;;;;;5012909;28;20699;-62
2022/04/04 00:43:09;;;;;;;10.80;7.13;;;-0.40;99.90;;;;;;5012676;28;20318;-62
2022/04/04 00:45:36;;;;;;;12.13;8.43;;;-0.30;99.90;;;;;;5013001;28;20218;-62
2022/04/04 00:48:03;;;;;;;10.93;9.03;;;-0.20;99.90;;;;;;5012500;28;20227;-62
2022/04/04 00:50:30;;;;;;;8.27;6.67;;;-0.20;99.90;;;;;;5012805;28;20214;-62
2022/04/04 00:52:56;;;;;;;12.90;8.70;;;-0.20;99.90;;;;;;5012486;28;20235;-61
2022/04/04 00:55:24;;;;;;;8.60;6.67;;;-0.20;99.90;;;;;;5012592;28;20211;-62
2022/04/04 00:57:54;;;;;;;9.53;6.93;;;-0.20;99.90;;;;;;5012281;28;20261;-62
2022/04/04 01:00:21;;;;;;;13.57;6.67;;;-0.20;99.90;;;;;;5012531;28;20675;-62
2022/04/04 01:02:48;;;;;;;8.93;6.83;;;-0.30;99.90;;;;;;5012882;28;20293;-62
2022/04/04 01:05:15;;;;;;;9.03;6.63;;;-0.30;99.90;;;;;;5012577;28;20559;-62
2022/04/04 01:07:41;;;;;;;10.17;6.87;;;-0.30;99.90;;;;;;5011997;28;20666;-62
2022/04/04 01:10:09;;;;;;;17.63;12.60;;;-0.40;99.90;;;;;;5012362;28;20710;-62
2022/04/04 01:12:37;;;;;;;13.57;9.87;;;-0.40;99.90;;;;;;5012583;28;20309;-62
2022/04/04 01:15:06;;;;;;;20.13;13.53;;;-0.40;99.90;;;;;;5012438;28;20215;-62
2022/04/04 01:17:32;;;;;;;13.13;7.87;;;-0.50;99.90;;;;;;5012248;28;20207;-62
2022/04/04 01:19:59;;;;;;;13.67;8.20;;;-0.50;99.90;;;;;;5012474;28;20211;-62
2022/04/04 01:22:26;;;;;;;11.53;7.90;;;-0.50;99.90;;;;;;5012164;28;20235;-62
2022/04/04 01:24:54;;;;;;;10.90;7.03;;;-0.50;99.90;;;;;;5012167;28;20207;-62
2022/04/04 01:27:21;;;;;;;27.80;16.90;;;-0.60;99.90;;;;;;5011955;28;20203;-62
2022/04/04 01:29:47;;;;;;;11.10;8.60;;;-0.70;99.90;;;;;;5012257;28;20326;-62
2022/04/04 01:32:14;;;;;;;15.27;12.03;;;-0.70;99.90;;;;;;5012305;28;20238;-61
2022/04/04 01:34:41;;;;;;;9.33;7.50;;;-0.70;99.90;;;;;;5012244;28;20733;-62
2022/04/04 01:37:08;;;;;;;11.03;7.57;;;-0.70;99.90;;;;;;5011974;28;20276;-61
2022/04/04 01:39:35;;;;;;;11.40;8.47;;;-0.70;99.90;;;;;;5012598;28;20302;-62
2022/04/04 01:42:04;;;;;;;9.23;7.10;;;-0.80;99.90;;;;;;5016096;28;20226;-62
2022/04/04 01:44:31;;;;;;;13.17;9.97;;;-0.80;99.90;;;;;;5016296;28;20265;-62
2022/04/04 01:46:58;;;;;;;12.67;6.57;;;-0.70;99.90;;;;;;5016207;28;20284;-62
2022/04/04 01:49:25;;;;;;;13.70;9.87;;;-0.70;99.90;;;;;;5016285;28;20300;-62
2022/04/04 01:51:51;;;;;;;10.93;7.17;;;-0.70;99.90;;;;;;5016067;28;20235;-62
2022/04/04 01:54:18;;;;;;;19.90;10.90;;;-0.70;99.90;;;;;;5017051;28;20202;-62
2022/04/04 01:56:45;;;;;;;9.33;6.67;;;-0.70;99.90;;;;;;5015913;28;20211;-62
2022/04/04 01:59:13;;;;;;;9.43;6.73;;;-0.80;99.90;;;;;;5015795;28;20706;-62
2022/04/04 02:01:41;;;;;;;9.83;7.37;;;-0.80;99.90;;;;;;5015936;28;20260;-62
2022/04/04 02:04:10;;;;;;;8.50;7.03;;;-0.90;99.90;;;;;;5015980;28;20691;-62
2022/04/04 02:06:37;;;;;;;10.00;7.50;;;-0.90;99.90;;;;;;5015972;28;20280;-62
2022/04/04 02:09:03;;;;;;;10.80;8.37;;;-1.00;99.90;;;;;;5015653;28;20253;-62
2022/04/04 02:11:30;;;;;;;12.67;7.43;;;-1.00;99.90;;;;;;5015789;28;20424;-62
2022/04/04 02:13:58;;;;;;;11.20;7.83;;;-0.90;99.90;;;;;;5015779;28;20203;-62
2022/04/04 02:16:26;;;;;;;10.00;7.33;;;-0.90;99.90;;;;;;5015531;28;20260;-62
2022/04/04 02:18:53;;;;;;;11.53;8.00;;;-0.90;99.90;;;;;;5015195;28;20211;-62
2022/04/04 02:21:20;;;;;;;11.77;7.17;;;-0.90;99.90;;;;;;5015370;28;20667;-63
2022/04/04 02:23:47;;;;;;;11.10;8.17;;;-0.80;99.90;;;;;;5015793;28;20254;-62
2022/04/04 02:26:13;;;;;;;10.37;8.00;;;-0.80;99.90;;;;;;5015643;28;20309;-62
2022/04/04 02:28:40;;;;;;;9.60;7.77;;;-0.70;99.90;;;;;;5015328;28;20223;-62
2022/04/04 02:31:07;;;;;;;10.37;8.03;;;-0.70;99.90;;;;;;5015494;28;20202;-62
2022/04/04 02:33:35;;;;;;;12.87;8.77;;;-0.80;99.90;;;;;;5015065;28;20238;-62
2022/04/04 02:36:02;;;;;;;9.80;7.63;;;-0.70;99.90;;;;;;5015420;28;20218;-62
2022/04/04 02:38:29;;;;;;;13.03;8.40;;;-0.70;99.90;;;;;;5015025;28;20265;-62
2022/04/04 02:40:57;;;;;;;14.03;8.60;;;-0.80;99.90;;;;;;5015196;28;20214;-62
2022/04/04 02:43:25;;;;;;;12.37;8.23;;;-1.00;99.90;;;;;;5015077;28;20262;-62
2022/04/04 02:45:51;;;;;;;12.93;7.70;;;-1.10;99.90;;;;;;5015117;28;20741;-62
2022/04/04 02:48:18;;;;;;;11.50;8.37;;;-1.30;99.90;;;;;;5015131;28;20651;-62
2022/04/04 02:50:48;;;;;;;12.43;8.33;;;-1.40;99.90;;;;;;5014867;28;20737;-62
2022/04/04 02:53:15;;;;;;;12.60;9.10;;;-1.40;99.90;;;;;;5013661;28;20270;-62
2022/04/04 02:58:26;;;;;;;13.67;8.33;;;-1.40;99.90;;;;;;5014619;28;20205;-62
2022/04/04 03:00:53;;;;;;;12.07;8.60;;;-1.40;99.90;;;;;;5015116;28;20207;-62
2022/04/04 03:03:20;;;;;;;12.47;8.80;;;-1.40;99.90;;;;;;5014863;28;20253;-62
2022/04/04 03:05:48;;;;;;;11.90;8.93;;;-1.40;99.90;;;;;;5014744;28;20203;-62
2022/04/04 03:08:15;;;;;;;12.73;9.00;;;-1.30;99.90;;;;;;5014362;28;20686;-62
2022/04/04 03:10:42;;;;;;;13.03;8.80;;;-1.30;99.90;;;;;;5014691;28;20211;-62
2022/04/04 03:13:09;;;;;;;12.43;8.93;;;-1.20;99.90;;;;;;5014206;28;20227;-62
2022/04/04 03:15:37;;;;;;;14.83;9.23;;;-1.20;99.90;;;;;;5014583;28;20234;-62
2022/04/04 03:18:05;;;;;;;11.73;9.37;;;-1.20;99.90;;;;;;5014183;28;20400;-62
2022/04/04 03:20:33;;;;;;;12.40;8.47;;;-1.30;99.90;;;;;;5014513;28;20207;-62
2022/04/04 03:23:02;;;;;;;10.93;9.07;;;-1.40;99.90;;;;;;5014475;28;20227;-61
2022/04/04 03:25:29;;;;;;;14.07;9.07;;;-1.40;99.90;;;;;;5014827;28;20214;-62
2022/04/04 03:27:56;;;;;;;11.03;8.83;;;-1.50;99.90;;;;;;5013933;28;20555;-61
2022/04/04 03:30:25;;;;;;;11.63;8.83;;;-1.50;99.90;;;;;;5014228;28;20233;-61
2022/04/04 03:32:54;;;;;;;12.67;8.87;;;-1.40;99.90;;;;;;5014150;28;20227;-62
2022/04/04 03:35:22;;;;;;;11.40;8.67;;;-1.40;99.90;;;;;;5014263;28;20215;-62
2022/04/04 03:37:52;;;;;;;12.23;9.03;;;-1.50;99.90;;;;;;5013692;28;20214;-62
2022/04/04 03:40:20;;;;;;;13.13;9.40;;;-1.40;99.90;;;;;;5013924;28;20207;-62
2022/04/04 03:42:50;;;;;;;11.43;8.67;;;-1.30;99.90;;;;;;5013873;28;20234;-62
2022/04/04 03:45:19;;;;;;;13.23;9.30;;;-1.40;99.90;;;;;;5013998;28;20257;-62
2022/04/04 03:47:45;;;;;;;13.50;8.77;;;-1.30;99.90;;;;;;5013609;28;20214;-62
2022/04/04 03:50:14;;;;;;;13.07;8.90;;;-1.30;99.90;;;;;;5013676;28;20226;-62
2022/04/04 03:52:41;;;;;;;12.07;8.60;;;-1.20;99.90;;;;;;5013446;28;20242;-62
2022/04/04 03:55:09;;;;;;;11.47;8.67;;;-1.10;99.90;;;;;;5013913;28;20214;-62
2022/04/04 03:57:39;;;;;;;11.60;9.03;;;-1.10;99.90;;;;;;5013482;28;20203;-62
2022/04/04 04:00:07;;;;;;;12.00;9.00;;;-1.10;99.90;;;;;;5013681;28;20293;-62
2022/04/04 04:02:34;;;;;;;13.43;9.90;;;-1.10;99.90;;;;;;5013571;28;20227;-62
2022/04/04 04:05:01;;;;;;;13.63;9.50;;;-1.10;99.90;;;;;;5013283;28;20207;-62
2022/04/04 04:07:28;;;;;;;14.00;9.10;;;-1.10;99.90;;;;;;5013255;28;20217;-62
2022/04/04 04:09:55;;;;;;;12.33;8.87;;;-1.10;99.90;;;;;;5014231;28;20238;-62
2022/04/04 04:12:22;;;;;;;13.70;9.27;;;-1.20;99.90;;;;;;5013374;28;20231;-62
2022/04/04 04:14:52;;;;;;;12.93;8.70;;;-1.30;99.90;;;;;;5013461;28;20211;-62
2022/04/04 04:17:19;;;;;;;12.07;9.00;;;-1.40;99.90;;;;;;5013493;28;20297;-62
2022/04/04 04:22:30;;;;;;;13.57;9.23;;;-1.50;99.90;;;;;;5013297;28;20229;-61
2022/04/04 04:24:57;;;;;;;13.00;9.80;;;-1.40;99.90;;;;;;5013229;28;20260;-62
2022/04/04 04:27:23;;;;;;;12.90;9.03;;;-1.40;99.90;;;;;;5013191;28;20218;-62
2022/04/04 04:29:52;;;;;;;12.20;9.40;;;-1.40;99.90;;;;;;5013061;28;20230;-62
2022/04/04 04:32:18;;;;;;;14.77;9.10;;;-1.50;99.90;;;;;;5012835;28;20231;-61
2022/04/04 04:34:48;;;;;;;13.67;9.70;;;-1.50;99.90;;;;;;5013186;28;20269;-62
2022/04/04 04:37:15;;;;;;;13.27;9.63;;;-1.60;99.90;;;;;;5013088;28;20215;-62
2022/04/04 04:39:42;;;;;;;12.50;9.90;;;-1.60;99.90;;;;;;5012713;28;20628;-61
2022/04/04 04:42:10;;;;;;;13.17;9.70;;;-1.50;99.90;;;;;;5012545;28;20652;-62
2022/04/04 04:44:36;;;;;;;13.53;10.40;;;-1.40;99.90;;;;;;5012584;28;20214;-61
2022/04/04 04:47:05;;;;;;;12.70;9.80;;;-1.40;99.90;;;;;;5012937;28;20233;-62
2022/04/04 04:49:32;;;;;;;13.20;10.03;;;-1.40;99.90;;;;;;5012583;28;20219;-62
2022/04/04 04:52:00;;;;;;;14.23;9.87;;;-1.40;99.90;;;;;;5012623;28;20293;-62
2022/04/04 04:54:26;;;;;;;13.50;9.80;;;-1.50;99.90;;;;;;5012707;28;20230;-61
2022/04/04 04:56:53;;;;;;;12.23;9.80;;;-1.60;99.90;;;;;;5012719;28;20211;-62
2022/04/04 04:59:20;;;;;;;14.07;9.33;;;-1.70;99.90;;;;;;5012276;28;20555;-62
2022/04/04 05:01:47;;;;;;;16.73;11.67;;;-1.70;99.90;;;;;;5012515;28;20230;-62
2022/04/04 05:04:15;;;;;;;13.40;9.70;;;-1.70;99.90;;;;;;5012723;28;20210;-62
2022/04/04 05:06:42;;;;;;;14.50;10.10;;;-1.50;99.90;;;;;;5012387;28;20294;-62
2022/04/04 05:09:08;;;;;;;15.63;11.10;;;-1.40;99.90;;;;;;5012082;28;20210;-62
2022/04/04 05:11:35;;;;;;;17.20;10.77;;;-1.40;99.90;;;;;;5012154;28;20736;-61
2022/04/04 05:14:02;;;;;;;13.87;10.53;;;-1.30;99.90;;;;;;5012491;28;20207;-62
2022/04/04 05:16:29;;;;;;;15.00;10.60;;;-1.10;99.90;;;;;;5011858;28;20211;-62
2022/04/04 05:18:56;;;;;;;14.17;10.63;;;-1.10;99.90;;;;;;5012166;28;20206;-64
2022/04/04 05:21:24;;;;;;;13.53;9.77;;;-1.10;99.90;;;;;;5012452;28;20455;-62
2022/04/04 05:23:51;;;;;;;13.90;10.20;;;-1.10;99.90;;;;;;5012020;28;20657;-62
2022/04/04 05:26:18;;;;;;;14.43;10.57;;;-1.10;99.90;;;;;;5012174;28;20213;-62
2022/04/04 05:28:45;;;;;;;13.83;9.67;;;-1.20;99.90;;;;;;5011970;28;20207;-62
2022/04/04 05:31:11;;;;;;;12.47;9.37;;;-1.20;99.90;;;;;;5012157;28;20236;-62
2022/04/04 05:33:39;;;;;;;13.10;9.37;;;-1.20;99.90;;;;;;5012453;28;20226;-62
2022/04/04 05:36:06;;;;;;;11.83;9.30;;;-1.10;99.90;;;;;;5012060;28;20210;-61
2022/04/04 05:38:34;;;;;;;13.30;9.93;;;-1.20;99.90;;;;;;5011866;28;20242;-62
2022/04/04 05:41:01;;;;;;;12.87;10.03;;;-1.10;99.90;;;;;;5012437;28;20203;-62
2022/04/04 05:43:28;;;;;;;13.03;10.10;;;-1.00;99.90;;;;;;5012008;28;20707;-62
2022/04/04 05:45:55;;;;;;;12.53;9.30;;;-0.90;99.90;;;;;;5012268;28;20635;-62
2022/04/04 05:48:23;;;;;;;14.13;9.77;;;-0.80;99.90;;;;;;5012125;28;20203;-61
2022/04/04 05:50:50;;;;;;;14.00;10.17;;;-0.60;99.90;;;;;;5012277;28;20226;-61
2022/04/04 05:53:17;;;;;;;11.83;9.63;;;-0.30;99.90;;;;;;5011720;28;20243;-61
2022/04/04 05:55:44;;;;;;;11.97;8.77;;;0.40;99.90;;;;;;5011656;28;20211;-62
2022/04/04 05:58:12;;;;;;;11.60;8.07;;;1.40;99.90;;;;;;5012040;28;20213;-62
2022/04/04 06:00:39;;;;;;;10.77;8.10;;;2.60;99.90;;;;;;5012114;28;20217;-62
2022/04/04 06:03:06;;;;;;;10.20;7.77;;;3.80;99.90;;;;;;5012102;28;20226;-62
2022/04/04 06:05:34;;;;;;;9.10;7.60;;;4.70;99.90;;;;;;5012049;28;20280;-62
2022/04/04 06:08:01;;;;;;;10.40;7.63;;;5.50;99.90;;;;;;5011839;28;20211;-62
2022/04/04 06:10:28;;;;;;;10.70;6.93;;;6.30;99.90;;;;;;5012033;28;20226;-62
2022/04/04 06:12:56;;;;;;;11.77;7.10;;;6.80;99.90;;;;;;5011653;28;20793;-63
2022/04/04 06:15:23;;;;;;;9.50;7.13;;;7.10;99.90;;;;;;5011953;28;20207;-63
2022/04/04 06:17:50;;;;;;;9.40;7.03;;;7.20;99.80;;;;;;5011308;28;20203;-61
2022/04/04 06:20:17;;;;;;;10.97;7.20;;;7.20;99.70;;;;;;5011575;28;20199;-62
2022/04/04 06:22:43;;;;;;;10.23;7.60;;;7.70;98.80;;;;;;5011186;28;20231;-63
2022/04/04 06:25:12;;;;;;;7.97;6.47;;;8.20;98.00;;;;;;5011657;28;20214;-63
2022/04/04 06:27:40;;;;;;;7.63;6.80;;;8.50;96.80;;;;;;5013949;28;20307;-62
2022/04/04 06:30:10;;;;;;;7.63;6.70;;;8.60;96.50;;;;;;5015052;28;20309;-63
2022/04/04 06:32:39;;;;;;;8.10;7.00;;;8.80;96.10;;;;;;5015102;28;20237;-63
2022/04/04 06:35:08;;;;;;;8.37;7.17;;;9.30;95.70;;;;;;5015098;28;20211;-63
2022/04/04 06:37:35;;;;;;;8.30;6.00;;;10.00;93.80;;;;;;5015344;28;20207;-63
2022/04/04 06:40:02;;;;;;;7.40;6.00;;;10.80;92.60;;;;;;5015166;28;20737;-63
2022/04/04 06:42:29;;;;;;;6.30;5.43;;;11.30;90.00;;;;;;5015010;28;20253;-63
2022/04/04 06:44:57;;;;;;;6.13;5.13;;;11.80;86.80;;;;;;5015023;28;20217;-63
2022/04/04 06:47:26;;;;;;;6.03;4.90;;;12.40;82.40;;;;;;5015690;28;20217;-63
2022/04/04 06:49:53;;;;;;;6.20;4.83;;;12.60;80.10;;;;;;5014875;28;20227;-63
2022/04/04 06:52:20;;;;;;;5.00;4.50;;;12.80;78.50;;;;;;5015033;28;20345;-63
2022/04/04 06:54:47;;;;;;;5.73;4.73;;;13.10;77.50;;;;;;5014566;28;20675;-63
2022/04/04 06:57:15;;;;;;;5.43;4.70;;;13.60;74.50;;;;;;5014881;28;20207;-63
2022/04/04 06:59:42;;;;;;;6.03;5.20;;;14.00;72.20;;;;;;5014223;28;20223;-63
2022/04/04 07:02:08;;;;;;;5.70;4.70;;;14.40;70.00;;;;;;5014521;28;20234;-63
2022/04/04 07:04:37;;;;;;;5.30;4.40;;;14.80;68.30;;;;;;5014702;28;20230;-62
2022/04/04 07:07:04;;;;;;;6.37;4.70;;;14.90;67.20;;;;;;5014695;28;20207;-62
2022/04/04 07:09:31;;;;;;;6.17;5.17;;;15.00;66.80;;;;;;5014200;28;20218;-62
2022/04/04 07:11:58;;;;;;;5.60;4.70;;;15.50;65.20;;;;;;5014497;28;20254;-62
2022/04/04 07:14:25;;;;;;;7.28;5.00;;;15.70;63.60;;;;;;5014671;28;20242;-62
2022/04/04 07:16:53;;;;;;;5.30;4.80;;;16.20;62.00;;;;;;5014336;28;20211;-62
2022/04/04 07:19:22;;;;;;;5.80;5.20;;;16.40;61.30;;;;;;5014243;28;20195;-62
2022/04/04 07:21:50;;;;;;;6.35;4.90;;;17.00;59.20;;;;;;5014525;28;20581;-63
2022/04/04 07:24:17;;;;;;;8.23;5.13;;;17.20;59.10;;;;;;5014177;28;20207;-63
2022/04/04 07:26:44;;;;;;;4.85;4.38;;;17.80;57.10;;;;;;5014040;28;20207;-63
2022/04/04 07:29:11;;;;;;;5.40;4.72;;;18.20;55.00;;;;;;5013656;28;20704;-63
2022/04/04 07:31:38;;;;;;;6.53;5.10;;;18.60;55.10;;;;;;5013614;28;20305;-63
2022/04/04 07:34:05;;;;;;;5.90;5.30;;;18.00;56.10;;;;;;5014333;28;20214;-62
2022/04/04 07:36:32;;;;;;;5.97;5.47;;;18.00;54.40;;;;;;5014282;28;20210;-62
2022/04/04 07:39:00;;;;;;;7.05;4.85;;;18.00;54.40;;;;;;5013206;28;20302;-62
2022/04/04 07:41:27;;;;;;;8.57;4.60;;;17.80;53.30;;;;;;5013928;28;20272;-62
2022/04/04 07:43:54;;;;;;;4.75;4.15;;;17.80;51.70;;;;;;5013698;28;20207;-62
2022/04/04 07:46:20;;;;;;;7.97;5.38;;;17.20;51.70;;;;;;5014152;28;20298;-62
2022/04/04 07:48:47;;;;;;;5.95;5.32;;;16.20;52.10;;;;;;5013349;28;20583;-62
2022/04/04 07:51:14;;;;;;;7.67;5.33;;;15.70;53.20;;;;;;5013643;28;20237;-62
2022/04/04 07:53:41;;;;;;;7.50;5.32;;;15.70;53.70;;;;;;5013851;28;20254;-63
2022/04/04 07:56:09;;;;;;;5.97;4.75;;;15.70;54.30;;;;;;5013458;28;20261;-62
2022/04/04 07:58:35;;;;;;;5.80;4.90;;;16.20;53.10;;;;;;5013164;28;20215;-63
2022/04/04 08:01:03;;;;;;;6.00;4.90;;;16.40;53.20;;;;;;5013271;28;20576;-63
2022/04/04 08:03:30;;;;;;;6.97;4.65;;;16.60;52.40;;;;;;5013430;28;20623;-62
2022/04/04 08:05:57;;;;;;;9.68;4.97;;;16.60;52.50;;;;;;5013487;28;20206;-62
2022/04/04 08:08:24;;;;;;;9.88;5.43;;;16.30;52.80;;;;;;5013273;28;20210;-62
2022/04/04 08:10:51;;;;;;;7.13;4.83;;;15.40;53.80;;;;;;5013362;28;20239;-62
2022/04/04 08:13:19;;;;;;;5.73;5.00;;;14.50;55.00;;;;;;5013419;28;20301;-62
2022/04/04 08:15:45;;;;;;;6.10;5.50;;;13.70;56.10;;;;;;5013349;28;20207;-62
2022/04/04 08:18:13;;;;;;;11.93;5.77;;;12.80;57.70;;;;;;5013174;28;20203;-62
2022/04/04 08:20:39;;;;;;;8.07;4.97;;;11.90;59.40;;;;;;5013625;28;20260;-62
2022/04/04 08:23:06;;;;;;;7.93;5.27;;;11.10;60.30;;;;;;5013279;28;20230;-62
2022/04/04 08:25:33;;;;;;;5.23;4.73;;;10.50;62.20;;;;;;5013305;28;20705;-62
2022/04/04 08:27:59;;;;;;;6.20;5.30;;;9.90;65.20;;;;;;5013164;28;20306;-62
2022/04/04 08:30:29;;;;;;;8.83;5.03;;;9.60;66.30;;;;;;5012750;28;20281;-64
2022/04/04 08:32:55;;;;;;;7.27;5.30;;;9.20;67.60;;;;;;5013044;28;20234;-63
2022/04/04 08:35:22;;;;;;;7.13;5.50;;;8.90;69.20;;;;;;5012751;28;20706;-62
2022/04/04 08:37:49;;;;;;;6.20;5.20;;;8.60;70.80;;;;;;5012660;28;20686;-61
2022/04/04 08:40:18;;;;;;;6.37;5.30;;;8.50;72.20;;;;;;5012844;28;20477;-64
2022/04/04 08:42:45;;;;;;;7.50;5.60;;;8.60;72.40;;;;;;5012759;28;20714;-62
2022/04/04 08:45:12;;;;;;;7.20;5.80;;;8.60;73.60;;;;;;5012664;28;20238;-62
2022/04/04 08:47:41;;;;;;;6.37;5.40;;;8.70;73.80;;;;;;5012527;28;20210;-62
2022/04/04 08:50:09;;;;;;;6.00;5.40;;;9.00;70.90;;;;;;5011357;28;20214;-62
2022/04/04 08:52:36;;;;;;;7.23;5.13;;;9.20;68.20;;;;;;5013304;28;20238;-63
2022/04/04 08:55:03;;;;;;;6.17;5.47;;;9.20;68.90;;;;;;5013417;28;20208;-62
2022/04/04 08:57:30;;;;;;;6.90;5.43;;;9.20;68.70;;;;;;5013224;28;20265;-62
2022/04/04 08:59:57;;;;;;;10.70;5.50;;;9.20;69.10;;;;;;5012610;28;20215;-62
2022/04/04 09:02:23;;;;;;;6.80;5.40;;;9.20;71.60;;;;;;5012403;28;20710;-63
2022/04/04 09:05:02;;;;;;;10.13;7.63;;;9.10;72.50;;;;;;5012444;28;20237;-63
2022/04/04 09:07:29;;;;;;;7.07;5.67;;;9.10;69.60;;;;;;5012250;28;20566;-63
2022/04/04 09:09:56;;;;;;;7.10;5.27;;;8.90;69.40;;;;;;5012379;28;20225;-63
2022/04/04 09:12:26;;;;;;;5.70;4.80;;;8.80;68.30;;;;;;5012423;28;20237;-63
2022/04/04 09:14:54;;;;;;;9.60;5.70;;;8.70;68.60;;;;;;5012262;28;20333;-64
2022/04/04 09:17:24;;;;;;;10.60;5.37;;;8.80;69.70;;;;;;5012463;28;20273;-62
2022/04/04 09:19:51;;;;;;;5.33;4.83;;;8.90;67.90;;;;;;5012415;28;20211;-62
2022/04/04 09:22:20;;;;;;;7.07;4.30;;;9.10;68.10;;;;;;5012049;28;20765;-62
2022/04/04 09:24:50;;;;;;;5.10;4.33;;;9.20;68.20;;;;;;5012355;28;20206;-62
2022/04/04 09:27:22;;;;;;;5.77;4.20;;;9.30;67.30;;;;;;5012133;28;20207;-62
2022/04/04 09:29:51;;;;;;;5.87;4.60;;;9.20;66.60;;;;;;5011876;28;20211;-62
2022/04/04 09:32:18;;;;;;;5.67;4.53;;;9.30;66.70;;;;;;5012004;28;20227;-62
2022/04/04 09:35:12;;;;;;;5.77;4.40;;;9.20;67.60;;;;;;5012735;28;20628;-62
2022/04/04 09:37:42;;;;;;;7.60;4.13;;;9.20;67.60;;;;;;5009441;28;20221;-61
2022/04/04 09:40:13;;;;;;;4.67;4.17;;;9.40;65.90;;;;;;5012050;28;20222;-61
2022/04/04 09:42:40;;;;;;;5.10;3.90;;;9.70;66.80;;;;;;5011805;28;20281;-61
2022/04/04 09:45:10;;;;;;;5.37;4.17;;;9.90;66.00;;;;;;5011569;28;20206;-61
2022/04/04 09:47:48;;;;;;;4.73;4.20;;;10.20;58.10;;;;;;5011951;28;20242;-61
2022/04/04 09:50:41;;;;;;;5.07;3.47;;;10.40;57.60;;;;;;5011800;28;20294;-61
2022/04/04 09:53:11;;;;;;;7.30;3.80;;;10.30;56.10;;;;;;5011821;28;20758;-62
2022/04/04 09:55:39;;;;;;;4.17;3.77;;;10.30;56.60;;;;;;5011825;28;20211;-62
2022/04/04 09:58:08;;;;;;;8.50;7.40;;;10.10;57.20;;;;;;5011768;28;20215;-62
2022/04/04 10:00:37;;;;;;;4.50;3.70;;;10.20;56.90;;;;;;5011989;28;20580;-62
2022/04/04 10:03:05;;;;;;;6.03;3.90;;;10.10;56.80;;;;;;5015185;28;20223;-62
2022/04/04 10:05:32;;;;;;;7.17;3.40;;;10.10;57.00;;;;;;5015405;28;20213;-62
2022/04/04 10:07:59;;;;;;;5.93;3.27;;;10.30;57.30;;;;;;5015396;28;20582;-62
2022/04/04 10:10:30;;;;;;;4.90;4.40;;;10.30;55.20;;;;;;5015484;28;20592;-62
2022/04/04 10:12:57;;;;;;;4.47;3.43;;;10.40;57.10;;;;;;5015539;28;20231;-61
2022/04/04 10:15:26;;;;;;;6.23;4.23;;;10.20;55.90;;;;;;5015550;28;20210;-62
2022/04/04 10:17:55;;;;;;;4.97;3.60;;;10.20;57.20;;;;;;5015371;28;20675;-61
2022/04/04 10:20:22;;;;;;;4.53;3.50;;;10.10;57.30;;;;;;5015326;28;20203;-61
2022/04/04 10:22:54;;;;;;;4.40;3.70;;;10.20;57.50;;;;;;5015491;28;20253;-61
2022/04/04 10:25:25;;;;;;;4.57;3.47;;;10.20;57.10;;;;;;5015158;28;20207;-61
2022/04/04 10:27:54;;;;;;;5.43;3.70;;;10.30;58.00;;;;;;5015115;28;20203;-61
2022/04/04 10:30:32;;;;;;;8.57;5.83;;;10.40;56.70;;;;;;5014711;28;20683;-61
2022/04/04 10:33:00;;;;;;;4.67;3.80;;;10.30;56.40;;;;;;5015271;28;20321;-61
2022/04/04 10:35:30;;;;;;;6.10;4.10;;;10.30;55.90;;;;;;5015260;28;20215;-62
2022/04/04 10:37:59;;;;;;;4.13;3.73;;;10.20;56.80;;;;;;5015513;28;20265;-61
2022/04/04 10:40:28;;;;;;;5.43;4.07;;;10.30;57.60;;;;;;5014819;28;20293;-62
2022/04/04 10:43:17;;;;;;;5.20;3.90;;;10.30;58.00;;;;;;5014743;28;20784;-62
2022/04/04 10:45:55;;;;;;;4.63;3.90;;;10.40;59.20;;;;;;5015028;28;20218;-62
2022/04/04 10:48:28;;;;;;;4.07;3.60;;;10.50;58.80;;;;;;5014744;28;20665;-62
2022/04/04 10:50:55;;;;;;;5.90;4.40;;;10.60;58.30;;;;;;5014673;28;20207;-62
2022/04/04 10:53:37;;;;;;;4.17;3.70;;;10.80;59.20;;;;;;5014554;28;20308;-62
2022/04/04 10:56:06;;;;;;;5.00;4.00;;;10.90;58.70;;;;;;5015166;28;20257;-62
2022/04/04 10:58:34;;;;;;;4.67;3.87;;;11.00;58.70;;;;;;5014577;28;20202;-62
2022/04/04 11:01:07;;;;;;;4.63;4.23;;;11.40;59.30;;;;;;5014799;28;20207;-62
2022/04/04 11:03:38;;;;;;;7.97;4.50;;;11.80;59.10;;;;;;5014420;28;20297;-62
2022/04/04 11:09:12;;;;;;;5.93;4.13;;;12.30;58.20;;;;;;5014370;28;20206;-62
2022/04/04 11:11:47;;;;;;;6.90;4.40;;;12.50;58.40;;;;;;5014306;28;20230;-63
2022/04/04 11:14:17;;;;;;;7.10;4.20;;;12.70;58.30;;;;;;5013377;28;20206;-62
2022/04/04 11:17:19;;;;;;;5.10;4.43;;;12.70;57.60;;;;;;5014548;28;20261;-62
2022/04/04 11:19:46;;;;;;;9.53;4.63;;;12.70;56.80;;;;;;5014332;28;20392;-62
2022/04/04 11:22:14;;;;;;;7.70;5.47;;;12.70;57.30;;;;;;5014583;28;20625;-62
2022/04/04 11:24:41;;;;;;;4.30;3.90;;;12.80;57.10;;;;;;5014228;28;20206;-62
2022/04/04 11:27:08;;;;;;;8.70;4.43;;;12.80;57.20;;;;;;5014331;28;20207;-62
2022/04/04 11:29:39;;;;;;;4.77;4.27;;;12.80;58.00;;;;;;5014027;28;20211;-62
2022/04/04 11:32:08;;;;;;;5.10;4.60;;;12.80;59.60;;;;;;5014089;28;20231;-62
2022/04/04 11:34:37;;;;;;;6.67;4.50;;;13.00;58.00;;;;;;5014267;28;20238;-62
2022/04/04 11:37:05;;;;;;;5.47;4.50;;;13.10;58.20;;;;;;5014045;28;20591;-62
2022/04/04 11:39:32;;;;;;;5.23;3.90;;;13.10;58.30;;;;;;5013897;28;20679;-62
2022/04/04 11:42:00;;;;;;;4.40;4.00;;;13.00;57.00;;;;;;5014192;28;20230;-62
2022/04/04 11:44:31;;;;;;;5.80;4.23;;;12.90;56.70;;;;;;5014094;28;20214;-61
2022/04/04 11:47:04;;;;;;;4.70;3.90;;;12.70;56.80;;;;;;5013986;28;20293;-62
2022/04/04 11:49:35;;;;;;;6.87;4.03;;;12.40;57.60;;;;;;5013878;28;20211;-62
2022/04/04 11:52:04;;;;;;;4.13;3.73;;;12.20;57.50;;;;;;5014078;28;20322;-62
2022/04/04 11:54:40;;;;;;;4.33;3.13;;;12.20;57.00;;;;;;5014090;28;20244;-62
2022/04/04 11:57:07;;;;;;;3.70;3.20;;;11.90;57.30;;;;;;5014701;28;20272;-63
2022/04/04 11:59:38;;;;;;;3.78;3.38;;;11.80;57.80;;;;;;5015093;28;20428;-70
2022/04/04 12:02:08;;;;;;;6.07;3.30;;;11.90;56.10;;;;;;5013098;28;20227;-63
2022/04/04 12:04:35;;;;;;;3.30;3.00;;;12.00;56.90;;;;;;5014459;28;20638;-63
2022/04/04 12:07:02;;;;;;;3.57;3.23;;;12.00;56.40;;;;;;5013951;28;20297;-64
2022/04/04 12:09:29;;;;;;;4.50;3.90;;;12.00;57.80;;;;;;5012985;28;20202;-66
2022/04/04 12:12:02;;;;;;;4.37;3.90;;;11.90;57.00;;;;;;5012547;28;20762;-66
2022/04/04 12:14:32;;;;;;;4.67;3.53;;;11.90;57.60;;;;;;5013294;28;20516;-63
2022/04/04 12:16:59;;;;;;;5.63;3.03;;;11.90;57.70;;;;;;5012739;28;20289;-66
2022/04/04 12:19:28;;;;;;;4.60;3.33;;;12.00;58.10;;;;;;5013296;28;20238;-65
2022/04/04 12:21:56;;;;;;;4.63;3.60;;;12.10;57.20;;;;;;5013058;28;20223;-65
2022/04/04 12:27:13;;;;;;;5.80;3.77;;;11.90;58.70;;;;;;5013050;28;20206;-65
2022/04/04 12:29:42;;;;;;;3.40;3.10;;;11.80;59.30;;;;;;5012681;28;20234;-67
2022/04/04 12:32:19;;;;;;;5.30;3.57;;;11.80;59.80;;;;;;5012519;28;20317;-66
2022/04/04 12:34:58;;;;;;;3.80;3.40;;;11.60;59.50;;;;;;5012844;28;20207;-67
2022/04/04 12:37:36;;;;;;;7.80;4.70;;;11.60;60.90;;;;;;5012675;28;20555;-64
2022/04/04 12:40:13;;;;;;;4.47;3.30;;;11.80;59.80;;;;;;5012336;28;20294;-68
2022/04/04 12:42:40;;;;;;;5.70;3.50;;;11.90;59.30;;;;;;5012660;28;20222;-69
2022/04/04 12:45:08;;;;;;;3.93;3.43;;;12.00;58.60;;;;;;5012584;28;20218;-65
2022/04/04 12:47:35;;;;;;;5.63;3.40;;;12.20;58.70;;;;;;5012495;28;20251;-63
2022/04/04 12:50:16;;;;;;;3.87;3.13;;;12.10;58.00;;;;;;5012498;28;20214;-63
2022/04/04 12:52:57;;;;;;;5.63;3.57;;;12.00;58.10;;;;;;5012395;28;20262;-63
2022/04/04 12:55:24;;;;;;;5.13;3.40;;;12.10;60.60;;;;;;5013003;28;20203;-63
2022/04/04 12:57:51;;;;;;;5.37;3.17;;;12.30;58.90;;;;;;5012741;28;20211;-63
2022/04/04 13:00:26;;;;;;;6.13;3.37;;;12.40;58.70;;;;;;5011975;28;20261;-63